Time,TemperatureF,DewpointF,PressureIn,WindDirection,WindDirectionDegrees,WindSpeedMPH,WindSpeedGustMPH,Humidity,HourlyPrecipIn,Conditions,Clouds,dailyrainin,SoftwareType,DateUTC
2013-03-09 00:06:00,36.6,15.6,30.15,NW,304,4.0,5.0,42,0.00,,,0.00,Wunderground v.1.15,2013-03-09 05:06:00,
2013-03-09 00:16:00,36.8,15.3,30.15,North,355,4.0,4.0,41,0.00,,,0.00,Wunderground v.1.15,2013-03-09 05:16:00,
2013-03-09 00:36:00,36.0,15.1,30.15,NW,306,2.0,3.0,42,0.00,,,0.00,Wunderground v.1.15,2013-03-09 05:36:00,
2013-03-09 00:46:00,36.0,14.0,30.15,NW,305,2.0,2.0,40,0.00,,,0.00,Wunderground v.1.15,2013-03-09 05:46:00,
2013-03-09 01:06:00,35.8,14.4,30.16,NW,311,2.0,3.0,41,0.00,,,0.00,Wunderground v.1.15,2013-03-09 06:06:00,
2013-03-09 01:16:00,35.6,14.7,30.15,WNW,287,3.0,3.0,42,0.00,,,0.00,Wunderground v.1.15,2013-03-09 06:16:00,
2013-03-09 01:26:00,35.2,14.9,30.15,West,269,3.0,5.0,43,0.00,,,0.00,Wunderground v.1.15,2013-03-09 06:26:00,
2013-03-09 02:36:00,33.4,12.2,30.14,West,281,2.0,2.0,41,0.00,,,0.00,Wunderground v.1.15,2013-03-09 07:36:00,
2013-03-09 02:46:00,33.5,12.8,30.14,West,262,1.0,1.0,42,0.00,,,0.00,Wunderground v.1.15,2013-03-09 07:46:00,
2013-03-09 02:56:00,34.1,13.4,30.14,North,5,2.0,2.0,42,0.00,,,0.00,Wunderground v.1.15,2013-03-09 07:56:00,
2013-03-09 03:36:00,32.7,13.7,30.14,WSW,257,2.0,2.0,45,0.00,,,0.00,Wunderground v.1.15,2013-03-09 08:36:00,
2013-03-09 03:46:00,32.9,13.3,30.14,WSW,257,1.0,1.0,44,0.00,,,0.00,Wunderground v.1.15,2013-03-09 08:46:00,
2013-03-09 03:56:00,32.8,13.2,30.14,WSW,257,1.0,1.0,44,0.00,,,0.00,Wunderground v.1.15,2013-03-09 08:56:00,
2013-03-09 04:26:00,33.7,11.3,30.15,North,355,2.0,3.0,39,0.00,,,0.00,Wunderground v.1.15,2013-03-09 09:26:00,
2013-03-09 04:36:00,34.0,11.6,30.15,NW,325,2.0,5.0,39,0.00,,,0.00,Wunderground v.1.15,2013-03-09 09:36:00,
2013-03-09 04:46:00,33.5,11.2,30.15,West,269,2.0,3.0,39,0.00,,,0.00,Wunderground v.1.15,2013-03-09 09:46:00,
2013-03-09 05:16:00,32.4,11.3,30.16,WNW,296,0.0,0.0,41,0.00,,,0.00,Wunderground v.1.15,2013-03-09 10:16:00,
2013-03-09 05:26:00,31.9,11.4,30.16,WNW,296,0.0,1.0,42,0.00,,,0.00,Wunderground v.1.15,2013-03-09 10:26:00,
2013-03-09 06:16:00,31.9,11.4,30.18,SSE,161,1.0,1.0,42,0.00,,,0.00,Wunderground v.1.15,2013-03-09 11:16:00,
2013-03-09 06:26:00,31.9,9.7,30.18,SSE,161,1.0,1.0,39,0.00,,,0.00,Wunderground v.1.15,2013-03-09 11:26:00,
2013-03-09 06:36:00,32.2,10.0,30.18,SSE,161,1.0,1.0,39,0.00,,,0.00,Wunderground v.1.15,2013-03-09 11:36:00,
2013-03-09 06:46:00,32.5,11.9,30.19,East,96,1.0,1.0,42,0.00,,,0.00,Wunderground v.1.15,2013-03-09 11:46:00,
2013-03-09 06:56:00,32.9,12.8,30.19,East,96,0.0,0.0,43,0.00,,,0.00,Wunderground v.1.15,2013-03-09 11:56:00,
2013-03-09 07:36:00,35.5,10.5,30.19,WSW,252,3.0,3.0,35,0.00,,,0.00,Wunderground v.1.15,2013-03-09 12:36:00,
2013-03-09 07:46:00,37.0,14.9,30.19,South,174,1.0,1.0,40,0.00,,,0.00,Wunderground v.1.15,2013-03-09 12:46:00,
2013-03-09 07:56:00,37.9,12.0,30.19,SE,126,1.0,1.0,34,0.00,,,0.00,Wunderground v.1.15,2013-03-09 12:56:00,
2013-03-09 08:36:00,41.1,14.1,30.18,ESE,115,2.0,2.0,33,0.00,,,0.00,Wunderground v.1.15,2013-03-09 13:36:00,
2013-03-09 08:46:00,41.2,14.9,30.18,ESE,115,1.0,1.0,34,0.00,,,0.00,Wunderground v.1.15,2013-03-09 13:46:00,
2013-03-09 08:56:00,41.9,15.5,30.18,SE,136,1.0,1.0,34,0.00,,,0.00,Wunderground v.1.15,2013-03-09 13:56:00,
2013-03-09 09:06:00,43.2,14.6,30.17,SE,136,1.0,1.0,31,0.00,,,0.00,Wunderground v.1.15,2013-03-09 14:06:00,
2013-03-09 09:16:00,44.1,13.0,30.17,SE,136,1.0,2.0,28,0.00,,,0.00,Wunderground v.1.15,2013-03-09 14:16:00,
2013-03-09 09:26:00,43.9,15.2,30.17,ESE,119,2.0,3.0,31,0.00,,,0.00,Wunderground v.1.15,2013-03-09 14:26:00,
2013-03-09 10:16:00,48.9,8.4,30.17,NE,43,3.0,3.0,19,0.00,,,0.00,Wunderground v.1.15,2013-03-09 15:16:00,
2013-03-09 10:26:00,48.5,8.0,30.17,WNW,303,4.0,6.0,19,0.00,,,0.00,Wunderground v.1.15,2013-03-09 15:26:00,
2013-03-09 10:36:00,48.0,8.8,30.17,NNE,30,5.0,6.0,20,0.00,,,0.00,Wunderground v.1.15,2013-03-09 15:36:00,
2013-03-09 10:46:00,48.3,9.0,30.17,NNW,343,4.0,11.0,20,0.00,,,0.00,Wunderground v.1.15,2013-03-09 15:46:00,
2013-03-09 10:56:00,47.9,7.5,30.17,NNE,13,6.0,6.0,19,0.00,,,0.00,Wunderground v.1.15,2013-03-09 15:56:00,
2013-03-09 11:06:00,48.0,6.4,30.17,NNW,341,7.0,9.0,18,0.00,,,0.00,Wunderground v.1.15,2013-03-09 16:06:00,
2013-03-09 11:16:00,48.2,5.3,30.17,NNW,340,8.0,9.0,17,0.00,,,0.00,Wunderground v.1.15,2013-03-09 16:16:00,
2013-03-09 11:46:00,49.9,4.0,30.17,North,5,6.0,6.0,15,0.00,,,0.00,Wunderground v.1.15,2013-03-09 16:46:00,
2013-03-09 11:56:00,50.7,4.6,30.17,NNW,342,6.0,11.0,15,0.00,,,0.00,Wunderground v.1.15,2013-03-09 16:56:00,
2013-03-09 13:06:00,52.0,4.2,30.15,NW,323,6.0,6.0,14,0.00,,,0.00,Wunderground v.1.15,2013-03-09 18:06:00,
2013-03-09 13:16:00,52.2,4.3,30.16,NW,319,6.0,11.0,14,0.00,,,0.00,Wunderground v.1.15,2013-03-09 18:16:00,
2013-03-09 13:26:00,51.9,5.6,30.16,WNW,297,7.0,12.0,15,0.00,,,0.00,Wunderground v.1.15,2013-03-09 18:26:00,
2013-03-09 13:56:00,52.9,4.9,30.15,NNE,14,5.0,5.0,14,0.00,,,0.00,Wunderground v.1.15,2013-03-09 18:56:00,
2013-03-09 14:06:00,52.8,4.8,30.15,WNW,296,5.0,5.0,14,0.00,,,0.00,Wunderground v.1.15,2013-03-09 19:06:00,
2013-03-09 14:16:00,52.9,6.4,30.16,North,9,4.0,6.0,15,0.00,,,0.00,Wunderground v.1.15,2013-03-09 19:16:00,
2013-03-09 14:26:00,53.2,6.7,30.16,NNE,18,4.0,4.0,15,0.00,,,0.00,Wunderground v.1.15,2013-03-09 19:26:00,
2013-03-09 15:06:00,53.3,8.2,30.15,NNE,28,3.0,3.0,16,0.00,,,0.00,Wunderground v.1.15,2013-03-09 20:06:00,
2013-03-09 15:16:00,53.2,9.4,30.16,NNW,335,4.0,4.0,17,0.00,,,0.00,Wunderground v.1.15,2013-03-09 20:16:00,
2013-03-09 15:26:00,53.3,8.2,30.16,North,350,3.0,6.0,16,0.00,,,0.00,Wunderground v.1.15,2013-03-09 20:26:00,
2013-03-09 16:06:00,52.5,8.9,30.17,ENE,76,2.0,2.0,17,0.00,,,0.00,Wunderground v.1.15,2013-03-09 21:06:00,
2013-03-09 16:16:00,51.3,7.9,30.18,NE,56,3.0,3.0,17,0.00,,,0.00,Wunderground v.1.15,2013-03-09 21:16:00,
2013-03-09 16:26:00,51.0,8.9,30.18,NNE,13,2.0,3.0,18,0.00,,,0.00,Wunderground v.1.15,2013-03-09 21:26:00,
2013-03-09 17:06:00,50.4,10.8,30.19,North,10,1.0,4.0,20,0.00,,,0.00,Wunderground v.1.15,2013-03-09 22:06:00,
2013-03-09 17:16:00,50.1,12.7,30.20,North,5,1.0,2.0,22,0.00,,,0.00,Wunderground v.1.15,2013-03-09 22:16:00,
2013-03-09 17:26:00,49.5,12.2,30.20,North,355,2.0,2.0,22,0.00,,,0.00,Wunderground v.1.15,2013-03-09 22:26:00,
2013-03-09 18:36:00,44.6,15.0,30.23,WSW,242,1.0,1.0,30,0.00,,,0.00,Wunderground v.1.15,2013-03-09 23:36:00,
2013-03-09 18:46:00,43.2,16.0,30.24,WSW,242,0.0,0.0,33,0.00,,,0.00,Wunderground v.1.15,2013-03-09 23:46:00,
2013-03-09 18:56:00,42.8,17.0,30.24,WSW,242,0.0,0.0,35,0.00,,,0.00,Wunderground v.1.15,2013-03-09 23:56:00,
2013-03-09 19:06:00,42.9,16.4,30.24,WSW,242,0.0,0.0,34,0.00,,,0.00,Wunderground v.1.15,2013-03-10 00:06:00,
2013-03-09 19:16:00,42.2,17.8,30.24,SW,228,0.0,0.0,37,0.00,,,0.00,Wunderground v.1.15,2013-03-10 00:16:00,
2013-03-09 19:36:00,38.3,19.3,30.25,East,97,3.0,3.0,46,0.00,,,0.00,Wunderground v.1.15,2013-03-10 00:36:00,
2013-03-09 19:46:00,38.5,19.5,30.25,East,98,0.0,2.0,46,0.00,,,0.00,Wunderground v.1.15,2013-03-10 00:46:00,
2013-03-09 19:56:00,38.2,19.2,30.25,East,98,2.0,2.0,46,0.00,,,0.00,Wunderground v.1.15,2013-03-10 00:56:00,
2013-03-09 20:36:00,38.5,19.5,30.25,East,98,0.0,0.0,46,0.00,,,0.00,Wunderground v.1.15,2013-03-10 01:36:00,
2013-03-09 20:46:00,38.3,19.3,30.26,East,98,0.0,0.0,46,0.00,,,0.00,Wunderground v.1.15,2013-03-10 01:46:00,
2013-03-09 20:56:00,38.5,18.4,30.26,East,98,0.0,0.0,44,0.00,,,0.00,Wunderground v.1.15,2013-03-10 01:56:00,
2013-03-09 21:06:00,38.0,19.5,30.27,East,98,0.0,2.0,47,0.00,,,0.00,Wunderground v.1.15,2013-03-10 02:06:00,
2013-03-09 21:16:00,36.9,19.0,30.27,East,98,1.0,1.0,48,0.00,,,0.00,Wunderground v.1.15,2013-03-10 02:16:00,
2013-03-09 21:46:00,36.2,19.8,30.26,East,98,0.0,0.0,51,0.00,,,0.00,Wunderground v.1.15,2013-03-10 02:46:00,
2013-03-09 21:56:00,35.5,20.0,30.26,East,98,0.0,0.0,53,0.00,,,0.00,Wunderground v.1.15,2013-03-10 02:56:00,
2013-03-09 22:16:00,34.6,20.5,30.27,East,98,1.0,2.0,56,0.00,,,0.00,Wunderground v.1.15,2013-03-10 03:16:00,
2013-03-09 22:26:00,34.1,20.0,30.27,East,98,0.0,0.0,56,0.00,,,0.00,Wunderground v.1.15,2013-03-10 03:26:00,
2013-03-09 23:36:00,32.5,19.7,30.28,East,98,0.0,0.0,59,0.00,,,0.00,Wunderground v.1.15,2013-03-10 04:36:00,